Etusivu
METAR-TAF:

METAR-TAF

Lentoasemat :

Örnsköldsvik, Ruotsi

Örnsköldsvikin lentoasema

Leveyspiiri: 63-24N, Pituuspiiri: 018-58E, korkeus merenpinnasta: 103 m

Tämänhetkinen sää

Tämä raportti tehtiin 16 minuuttia sitten, kello 11.20 UTC
Tuuli 9 kn etelästä/kaakosta, vaihdellen idän/kaakon ja etelän välillä
Lämpötila 10°C
Kosteus 57%
Ilmanpaine 1012 hPa
Näkyvyys 10 km tai enemmän
ei pilviä alle 1500 m:ssä eikä cumulonimbus-pilviä

METAR: ESNO 291120Z 15009KT 120V190 CAVOK 10/02 Q1012

Aika: 13:36 (11:36 UTC)

Sääennuste

Tämä raportti tehtiin 3 tuntia ja 6 minuuttia sitten, kello 08.30 UTC
Ennuste voimassa 29. päivästä klo 09 UTC - 29. päivään klo 18 UTC
Tuuli 5 kn pohjoisesta
Näkyvyys 10 km tai enemmän
ei pilviä alle 1500 m:ssä eikä cumulonimbus-pilviä
Tulossa
29. päivästä klo 11 UTC - 29. päivään klo 13 UTC
Tuuli 10 kn etelästä/kaakosta

TAF: ESNO 290830Z 2909/2918 01005KT CAVOK BECMG 2911/2913 16010KT

Säähavainnot ja -ennusteet yli 4000 lentoasemalta (METAR- ja TAF-raportit).

Käytössä olevat sääasemat on merkitty karttaan keltaisilla ja punaisilla pisteillä.

Aseta hiiri pisteen päälle nähdäksesi sääaseman nimen.

Klikkaa sitten nähdäksesi säähavainnot ja -ennusteet.

Kartan vaihtaminen: klikkaa mustalla rastilla varustettuja vihreitä pisteitä, niin voit zoomata sisään; viivalla varustettua vihreää pistettä, niin voit zoomata ulos tai vihreitä nuolia, niin pääset viereisille kartoille.


METAR-TAF: